sensor_id;sensor_type;location;lat;lon;timestamp;P1;durP1;ratioP1;P2;durP2;ratioP2
21432;SDS011;18592;49.708;10.900;2022-12-10T00:01:27;19.23;;;13.43;;
21432;SDS011;18592;49.708;10.900;2022-12-10T00:03:30;20.73;;;13.23;;
21432;SDS011;18592;49.708;10.900;2022-12-10T00:05:34;24.10;;;14.33;;
21432;SDS011;18592;49.708;10.900;2022-12-10T00:07:36;22.17;;;14.67;;
21432;SDS011;18592;49.708;10.900;2022-12-10T00:09:38;19.50;;;13.80;;
21432;SDS011;18592;49.708;10.900;2022-12-10T00:11:40;24.40;;;14.60;;
21432;SDS011;18592;49.708;10.900;2022-12-10T00:13:42;20.77;;;14.03;;
21432;SDS011;18592;49.708;10.900;2022-12-10T00:15:45;23.23;;;13.67;;
21432;SDS011;18592;49.708;10.900;2022-12-10T00:17:47;22.20;;;13.80;;
21432;SDS011;18592;49.708;10.900;2022-12-10T00:19:51;23.00;;;14.10;;
21432;SDS011;18592;49.708;10.900;2022-12-10T00:21:56;23.30;;;13.60;;
21432;SDS011;18592;49.708;10.900;2022-12-10T00:23:57;26.47;;;14.33;;
21432;SDS011;18592;49.708;10.900;2022-12-10T00:26:04;29.10;;;16.50;;
21432;SDS011;18592;49.708;10.900;2022-12-10T00:28:25;29.23;;;16.70;;
21432;SDS011;18592;49.708;10.900;2022-12-10T00:30:26;31.07;;;18.17;;
21432;SDS011;18592;49.708;10.900;2022-12-10T00:32:31;30.23;;;16.90;;
21432;SDS011;18592;49.708;10.900;2022-12-10T00:34:32;32.47;;;17.20;;
21432;SDS011;18592;49.708;10.900;2022-12-10T00:36:37;29.30;;;16.20;;
21432;SDS011;18592;49.708;10.900;2022-12-10T00:38:46;27.07;;;15.67;;
21432;SDS011;18592;49.708;10.900;2022-12-10T00:40:49;27.70;;;14.93;;
21432;SDS011;18592;49.708;10.900;2022-12-10T00:42:53;29.47;;;16.03;;
21432;SDS011;18592;49.708;10.900;2022-12-10T00:44:55;28.13;;;15.80;;
21432;SDS011;18592;49.708;10.900;2022-12-10T00:46:57;26.40;;;15.87;;
21432;SDS011;18592;49.708;10.900;2022-12-10T00:49:00;28.87;;;17.23;;
21432;SDS011;18592;49.708;10.900;2022-12-10T00:51:13;27.93;;;15.97;;
21432;SDS011;18592;49.708;10.900;2022-12-10T00:53:23;29.73;;;16.17;;
21432;SDS011;18592;49.708;10.900;2022-12-10T00:55:28;31.50;;;17.33;;
21432;SDS011;18592;49.708;10.900;2022-12-10T00:57:30;29.50;;;17.17;;
21432;SDS011;18592;49.708;10.900;2022-12-10T00:59:32;28.70;;;16.53;;
21432;SDS011;18592;49.708;10.900;2022-12-10T01:01:35;28.17;;;16.43;;
21432;SDS011;18592;49.708;10.900;2022-12-10T01:03:44;25.23;;;15.53;;
21432;SDS011;18592;49.708;10.900;2022-12-10T01:05:47;28.43;;;15.70;;
21432;SDS011;18592;49.708;10.900;2022-12-10T01:07:49;30.97;;;16.87;;
21432;SDS011;18592;49.708;10.900;2022-12-10T01:09:53;28.77;;;16.63;;
21432;SDS011;18592;49.708;10.900;2022-12-10T01:11:56;28.03;;;16.17;;
21432;SDS011;18592;49.708;10.900;2022-12-10T01:14:04;29.30;;;17.73;;
21432;SDS011;18592;49.708;10.900;2022-12-10T01:16:13;29.60;;;17.13;;
21432;SDS011;18592;49.708;10.900;2022-12-10T01:18:17;32.63;;;17.97;;
21432;SDS011;18592;49.708;10.900;2022-12-10T01:20:19;25.67;;;16.73;;
21432;SDS011;18592;49.708;10.900;2022-12-10T01:22:22;31.33;;;17.83;;
21432;SDS011;18592;49.708;10.900;2022-12-10T01:24:25;26.10;;;16.30;;
21432;SDS011;18592;49.708;10.900;2022-12-10T01:26:29;31.03;;;17.70;;
21432;SDS011;18592;49.708;10.900;2022-12-10T01:28:35;30.60;;;16.90;;
21432;SDS011;18592;49.708;10.900;2022-12-10T01:30:39;31.03;;;17.43;;
21432;SDS011;18592;49.708;10.900;2022-12-10T01:32:43;34.67;;;17.87;;
21432;SDS011;18592;49.708;10.900;2022-12-10T01:34:44;29.40;;;17.23;;
21432;SDS011;18592;49.708;10.900;2022-12-10T01:36:49;31.27;;;17.40;;
21432;SDS011;18592;49.708;10.900;2022-12-10T01:39:01;28.33;;;17.07;;
21432;SDS011;18592;49.708;10.900;2022-12-10T01:41:04;30.67;;;17.40;;
21432;SDS011;18592;49.708;10.900;2022-12-10T01:43:10;31.70;;;18.47;;
21432;SDS011;18592;49.708;10.900;2022-12-10T01:45:15;31.43;;;17.40;;
21432;SDS011;18592;49.708;10.900;2022-12-10T01:47:28;35.47;;;18.77;;
21432;SDS011;18592;49.708;10.900;2022-12-10T01:49:33;31.30;;;18.47;;
21432;SDS011;18592;49.708;10.900;2022-12-10T01:51:42;33.27;;;19.63;;
21432;SDS011;18592;49.708;10.900;2022-12-10T01:53:45;33.83;;;18.60;;
21432;SDS011;18592;49.708;10.900;2022-12-10T01:55:49;31.10;;;17.97;;
21432;SDS011;18592;49.708;10.900;2022-12-10T01:57:51;33.30;;;19.20;;
21432;SDS011;18592;49.708;10.900;2022-12-10T01:59:57;32.73;;;18.70;;
21432;SDS011;18592;49.708;10.900;2022-12-10T02:06:58;26.97;;;15.33;;
21432;SDS011;18592;49.708;10.900;2022-12-10T02:14:04;25.10;;;15.33;;
21432;SDS011;18592;49.708;10.900;2022-12-10T02:16:24;23.07;;;14.73;;
21432;SDS011;18592;49.708;10.900;2022-12-10T02:18:37;23.40;;;14.93;;
21432;SDS011;18592;49.708;10.900;2022-12-10T02:20:45;25.07;;;14.90;;
21432;SDS011;18592;49.708;10.900;2022-12-10T02:23:25;21.73;;;13.77;;
21432;SDS011;18592;49.708;10.900;2022-12-10T02:25:26;19.90;;;13.13;;
21432;SDS011;18592;49.708;10.900;2022-12-10T02:29:43;17.43;;;11.67;;
21432;SDS011;18592;49.708;10.900;2022-12-10T02:31:51;16.93;;;11.03;;
21432;SDS011;18592;49.708;10.900;2022-12-10T02:33:58;16.63;;;11.40;;
21432;SDS011;18592;49.708;10.900;2022-12-10T02:36:02;15.83;;;11.17;;
21432;SDS011;18592;49.708;10.900;2022-12-10T02:38:16;16.43;;;11.93;;
21432;SDS011;18592;49.708;10.900;2022-12-10T02:40:32;17.37;;;11.40;;
21432;SDS011;18592;49.708;10.900;2022-12-10T02:42:43;21.13;;;13.17;;
21432;SDS011;18592;49.708;10.900;2022-12-10T02:44:48;17.27;;;12.30;;
21432;SDS011;18592;49.708;10.900;2022-12-10T02:46:55;18.33;;;12.23;;
21432;SDS011;18592;49.708;10.900;2022-12-10T02:49:05;21.23;;;12.67;;
21432;SDS011;18592;49.708;10.900;2022-12-10T02:51:09;19.47;;;12.67;;
21432;SDS011;18592;49.708;10.900;2022-12-10T02:53:12;21.73;;;12.83;;
21432;SDS011;18592;49.708;10.900;2022-12-10T02:55:14;22.87;;;13.80;;
21432;SDS011;18592;49.708;10.900;2022-12-10T03:00:08;23.93;;;13.53;;
21432;SDS011;18592;49.708;10.900;2022-12-10T03:02:25;22.67;;;13.17;;
21432;SDS011;18592;49.708;10.900;2022-12-10T03:04:46;20.17;;;13.43;;
21432;SDS011;18592;49.708;10.900;2022-12-10T03:06:56;23.30;;;13.93;;
21432;SDS011;18592;49.708;10.900;2022-12-10T03:09:11;21.83;;;14.13;;
21432;SDS011;18592;49.708;10.900;2022-12-10T03:11:18;20.13;;;12.13;;
21432;SDS011;18592;49.708;10.900;2022-12-10T03:14:09;21.93;;;13.97;;
21432;SDS011;18592;49.708;10.900;2022-12-10T03:15:54;22.17;;;13.63;;
21432;SDS011;18592;49.708;10.900;2022-12-10T03:17:57;22.67;;;14.47;;
21432;SDS011;18592;49.708;10.900;2022-12-10T03:20:02;24.20;;;14.93;;
21432;SDS011;18592;49.708;10.900;2022-12-10T03:22:10;22.73;;;13.93;;
21432;SDS011;18592;49.708;10.900;2022-12-10T03:24:14;23.87;;;14.67;;
21432;SDS011;18592;49.708;10.900;2022-12-10T03:26:21;24.63;;;15.20;;
21432;SDS011;18592;49.708;10.900;2022-12-10T03:28:40;21.73;;;14.03;;
21432;SDS011;18592;49.708;10.900;2022-12-10T03:30:47;24.03;;;14.30;;
21432;SDS011;18592;49.708;10.900;2022-12-10T03:32:51;23.27;;;13.27;;
21432;SDS011;18592;49.708;10.900;2022-12-10T03:34:55;23.60;;;14.57;;
21432;SDS011;18592;49.708;10.900;2022-12-10T03:36:58;23.33;;;14.43;;
21432;SDS011;18592;49.708;10.900;2022-12-10T03:39:00;20.93;;;14.17;;
21432;SDS011;18592;49.708;10.900;2022-12-10T03:41:02;26.17;;;15.03;;
21432;SDS011;18592;49.708;10.900;2022-12-10T03:43:04;23.63;;;14.83;;
21432;SDS011;18592;49.708;10.900;2022-12-10T03:45:06;22.80;;;14.57;;
21432;SDS011;18592;49.708;10.900;2022-12-10T03:47:10;28.33;;;15.30;;
21432;SDS011;18592;49.708;10.900;2022-12-10T03:49:15;25.93;;;15.80;;
21432;SDS011;18592;49.708;10.900;2022-12-10T03:51:17;27.87;;;15.30;;
21432;SDS011;18592;49.708;10.900;2022-12-10T03:53:19;24.77;;;14.67;;
21432;SDS011;18592;49.708;10.900;2022-12-10T03:55:21;24.10;;;14.83;;
21432;SDS011;18592;49.708;10.900;2022-12-10T03:57:25;25.40;;;15.17;;
21432;SDS011;18592;49.708;10.900;2022-12-10T03:59:27;24.33;;;14.47;;
21432;SDS011;18592;49.708;10.900;2022-12-10T04:01:31;26.80;;;15.10;;
21432;SDS011;18592;49.708;10.900;2022-12-10T04:03:42;24.53;;;14.70;;
21432;SDS011;18592;49.708;10.900;2022-12-10T04:05:46;24.00;;;14.80;;
21432;SDS011;18592;49.708;10.900;2022-12-10T04:07:47;26.43;;;15.37;;
21432;SDS011;18592;49.708;10.900;2022-12-10T04:09:56;25.23;;;14.40;;
21432;SDS011;18592;49.708;10.900;2022-12-10T04:11:58;24.37;;;14.40;;
21432;SDS011;18592;49.708;10.900;2022-12-10T04:14:00;24.80;;;15.60;;
21432;SDS011;18592;49.708;10.900;2022-12-10T04:16:21;24.13;;;14.10;;
21432;SDS011;18592;49.708;10.900;2022-12-10T04:18:31;25.13;;;15.43;;
21432;SDS011;18592;49.708;10.900;2022-12-10T04:20:32;26.43;;;15.57;;
21432;SDS011;18592;49.708;10.900;2022-12-10T04:22:53;29.40;;;15.93;;
21432;SDS011;18592;49.708;10.900;2022-12-10T04:25:13;28.17;;;15.87;;
21432;SDS011;18592;49.708;10.900;2022-12-10T04:27:37;26.70;;;15.13;;
21432;SDS011;18592;49.708;10.900;2022-12-10T04:29:40;30.83;;;16.77;;
21432;SDS011;18592;49.708;10.900;2022-12-10T04:31:42;32.03;;;17.37;;
21432;SDS011;18592;49.708;10.900;2022-12-10T04:33:43;26.67;;;15.87;;
21432;SDS011;18592;49.708;10.900;2022-12-10T04:35:46;30.83;;;17.40;;
21432;SDS011;18592;49.708;10.900;2022-12-10T04:37:47;27.60;;;16.13;;
21432;SDS011;18592;49.708;10.900;2022-12-10T04:39:51;26.90;;;15.83;;
21432;SDS011;18592;49.708;10.900;2022-12-10T04:41:53;31.37;;;16.63;;
21432;SDS011;18592;49.708;10.900;2022-12-10T04:43:55;28.93;;;16.70;;
21432;SDS011;18592;49.708;10.900;2022-12-10T04:45:59;28.43;;;16.43;;
21432;SDS011;18592;49.708;10.900;2022-12-10T04:48:01;26.80;;;15.77;;
21432;SDS011;18592;49.708;10.900;2022-12-10T04:50:03;29.07;;;16.53;;
21432;SDS011;18592;49.708;10.900;2022-12-10T04:52:05;25.23;;;14.93;;
21432;SDS011;18592;49.708;10.900;2022-12-10T04:54:08;28.63;;;16.60;;
21432;SDS011;18592;49.708;10.900;2022-12-10T04:56:12;26.23;;;14.43;;
21432;SDS011;18592;49.708;10.900;2022-12-10T04:58:14;24.60;;;14.97;;
21432;SDS011;18592;49.708;10.900;2022-12-10T05:00:15;29.93;;;16.57;;
21432;SDS011;18592;49.708;10.900;2022-12-10T05:02:17;28.63;;;16.50;;
21432;SDS011;18592;49.708;10.900;2022-12-10T05:04:19;30.93;;;16.97;;
21432;SDS011;18592;49.708;10.900;2022-12-10T05:06:21;26.77;;;15.17;;
21432;SDS011;18592;49.708;10.900;2022-12-10T05:08:23;29.30;;;15.97;;
21432;SDS011;18592;49.708;10.900;2022-12-10T05:10:25;29.40;;;17.63;;
21432;SDS011;18592;49.708;10.900;2022-12-10T05:12:27;29.73;;;16.67;;
21432;SDS011;18592;49.708;10.900;2022-12-10T05:14:29;27.57;;;15.70;;
21432;SDS011;18592;49.708;10.900;2022-12-10T05:16:31;25.70;;;15.63;;
21432;SDS011;18592;49.708;10.900;2022-12-10T05:18:35;27.67;;;16.77;;
21432;SDS011;18592;49.708;10.900;2022-12-10T05:20:37;27.77;;;16.10;;
21432;SDS011;18592;49.708;10.900;2022-12-10T05:22:44;28.13;;;15.97;;
21432;SDS011;18592;49.708;10.900;2022-12-10T05:25:04;25.93;;;15.00;;
21432;SDS011;18592;49.708;10.900;2022-12-10T05:27:06;24.93;;;15.40;;
21432;SDS011;18592;49.708;10.900;2022-12-10T05:29:07;28.83;;;16.17;;
21432;SDS011;18592;49.708;10.900;2022-12-10T05:33:20;25.33;;;14.63;;
21432;SDS011;18592;49.708;10.900;2022-12-10T05:35:22;21.23;;;13.77;;
21432;SDS011;18592;49.708;10.900;2022-12-10T05:37:23;23.73;;;14.90;;
21432;SDS011;18592;49.708;10.900;2022-12-10T05:39:25;22.17;;;13.40;;
21432;SDS011;18592;49.708;10.900;2022-12-10T05:41:28;21.30;;;12.60;;
21432;SDS011;18592;49.708;10.900;2022-12-10T05:43:31;22.10;;;13.70;;
21432;SDS011;18592;49.708;10.900;2022-12-10T05:45:33;21.60;;;13.87;;
21432;SDS011;18592;49.708;10.900;2022-12-10T05:47:34;21.70;;;13.93;;
21432;SDS011;18592;49.708;10.900;2022-12-10T05:49:36;21.67;;;13.63;;
21432;SDS011;18592;49.708;10.900;2022-12-10T05:51:38;19.57;;;11.70;;
21432;SDS011;18592;49.708;10.900;2022-12-10T05:53:46;18.53;;;12.67;;
21432;SDS011;18592;49.708;10.900;2022-12-10T05:55:47;20.67;;;13.20;;
21432;SDS011;18592;49.708;10.900;2022-12-10T05:57:52;19.43;;;12.63;;
21432;SDS011;18592;49.708;10.900;2022-12-10T05:59:54;18.20;;;12.23;;
21432;SDS011;18592;49.708;10.900;2022-12-10T06:01:55;18.80;;;12.30;;
21432;SDS011;18592;49.708;10.900;2022-12-10T06:03:58;20.43;;;12.70;;
21432;SDS011;18592;49.708;10.900;2022-12-10T06:06:01;19.63;;;12.60;;
21432;SDS011;18592;49.708;10.900;2022-12-10T06:08:03;20.47;;;12.90;;
21432;SDS011;18592;49.708;10.900;2022-12-10T06:10:05;18.43;;;12.30;;
21432;SDS011;18592;49.708;10.900;2022-12-10T06:12:08;18.17;;;12.03;;
21432;SDS011;18592;49.708;10.900;2022-12-10T06:14:10;20.17;;;12.27;;
21432;SDS011;18592;49.708;10.900;2022-12-10T06:16:15;19.30;;;12.83;;
21432;SDS011;18592;49.708;10.900;2022-12-10T06:18:17;19.70;;;13.13;;
21432;SDS011;18592;49.708;10.900;2022-12-10T06:20:22;18.97;;;11.97;;
21432;SDS011;18592;49.708;10.900;2022-12-10T06:22:24;20.60;;;13.17;;
21432;SDS011;18592;49.708;10.900;2022-12-10T06:24:26;20.07;;;12.40;;
21432;SDS011;18592;49.708;10.900;2022-12-10T06:26:28;18.57;;;12.47;;
21432;SDS011;18592;49.708;10.900;2022-12-10T06:28:30;20.07;;;13.10;;
21432;SDS011;18592;49.708;10.900;2022-12-10T06:30:32;20.17;;;12.57;;
21432;SDS011;18592;49.708;10.900;2022-12-10T06:32:34;17.10;;;11.37;;
21432;SDS011;18592;49.708;10.900;2022-12-10T06:34:36;19.63;;;12.83;;
21432;SDS011;18592;49.708;10.900;2022-12-10T06:36:43;17.60;;;12.30;;
21432;SDS011;18592;49.708;10.900;2022-12-10T06:38:45;17.57;;;11.93;;
21432;SDS011;18592;49.708;10.900;2022-12-10T06:40:50;18.53;;;12.80;;
21432;SDS011;18592;49.708;10.900;2022-12-10T06:43:06;18.73;;;11.50;;
21432;SDS011;18592;49.708;10.900;2022-12-10T06:45:08;22.10;;;13.40;;
21432;SDS011;18592;49.708;10.900;2022-12-10T06:47:10;20.07;;;12.47;;
21432;SDS011;18592;49.708;10.900;2022-12-10T06:49:15;20.47;;;12.83;;
21432;SDS011;18592;49.708;10.900;2022-12-10T06:51:16;20.17;;;13.00;;
21432;SDS011;18592;49.708;10.900;2022-12-10T06:53:18;19.17;;;12.47;;
21432;SDS011;18592;49.708;10.900;2022-12-10T06:55:20;19.37;;;13.20;;
21432;SDS011;18592;49.708;10.900;2022-12-10T06:57:22;20.93;;;13.03;;
21432;SDS011;18592;49.708;10.900;2022-12-10T06:59:26;19.93;;;12.87;;
21432;SDS011;18592;49.708;10.900;2022-12-10T07:01:27;17.87;;;12.37;;
21432;SDS011;18592;49.708;10.900;2022-12-10T07:03:29;20.53;;;12.53;;
21432;SDS011;18592;49.708;10.900;2022-12-10T07:05:31;18.47;;;12.87;;
21432;SDS011;18592;49.708;10.900;2022-12-10T07:07:32;18.07;;;12.07;;
21432;SDS011;18592;49.708;10.900;2022-12-10T07:09:34;19.47;;;12.47;;
21432;SDS011;18592;49.708;10.900;2022-12-10T07:11:37;18.30;;;12.47;;
21432;SDS011;18592;49.708;10.900;2022-12-10T07:13:39;18.90;;;11.60;;
21432;SDS011;18592;49.708;10.900;2022-12-10T07:15:42;17.97;;;12.17;;
21432;SDS011;18592;49.708;10.900;2022-12-10T07:17:44;19.17;;;13.23;;
21432;SDS011;18592;49.708;10.900;2022-12-10T07:19:45;17.77;;;12.37;;
21432;SDS011;18592;49.708;10.900;2022-12-10T07:21:47;17.10;;;12.47;;
21432;SDS011;18592;49.708;10.900;2022-12-10T07:23:54;21.17;;;13.07;;
21432;SDS011;18592;49.708;10.900;2022-12-10T07:25:59;18.40;;;12.87;;
21432;SDS011;18592;49.708;10.900;2022-12-10T07:28:05;19.33;;;13.23;;
21432;SDS011;18592;49.708;10.900;2022-12-10T07:30:10;18.80;;;12.83;;
21432;SDS011;18592;49.708;10.900;2022-12-10T07:32:13;22.23;;;13.87;;
21432;SDS011;18592;49.708;10.900;2022-12-10T07:34:16;22.50;;;13.80;;
21432;SDS011;18592;49.708;10.900;2022-12-10T07:36:21;21.87;;;13.10;;
21432;SDS011;18592;49.708;10.900;2022-12-10T07:38:24;19.23;;;13.40;;
21432;SDS011;18592;49.708;10.900;2022-12-10T07:40:26;23.50;;;14.17;;
21432;SDS011;18592;49.708;10.900;2022-12-10T07:42:27;20.03;;;14.13;;
21432;SDS011;18592;49.708;10.900;2022-12-10T07:44:29;23.30;;;15.00;;
21432;SDS011;18592;49.708;10.900;2022-12-10T07:46:31;25.10;;;15.40;;
21432;SDS011;18592;49.708;10.900;2022-12-10T07:48:33;24.83;;;14.80;;
21432;SDS011;18592;49.708;10.900;2022-12-10T07:53:02;22.07;;;14.47;;
21432;SDS011;18592;49.708;10.900;2022-12-10T07:55:04;20.77;;;14.33;;
21432;SDS011;18592;49.708;10.900;2022-12-10T07:57:10;22.93;;;14.17;;
21432;SDS011;18592;49.708;10.900;2022-12-10T07:59:11;20.27;;;13.67;;
21432;SDS011;18592;49.708;10.900;2022-12-10T08:01:18;20.40;;;13.20;;
21432;SDS011;18592;49.708;10.900;2022-12-10T08:03:23;21.87;;;13.30;;
21432;SDS011;18592;49.708;10.900;2022-12-10T08:05:26;19.93;;;13.63;;
21432;SDS011;18592;49.708;10.900;2022-12-10T08:07:29;19.10;;;12.70;;
21432;SDS011;18592;49.708;10.900;2022-12-10T08:09:31;19.83;;;13.40;;
21432;SDS011;18592;49.708;10.900;2022-12-10T08:11:35;20.93;;;13.73;;
21432;SDS011;18592;49.708;10.900;2022-12-10T08:13:40;19.97;;;13.80;;
21432;SDS011;18592;49.708;10.900;2022-12-10T08:15:43;19.53;;;12.87;;
21432;SDS011;18592;49.708;10.900;2022-12-10T08:17:44;20.87;;;14.30;;
21432;SDS011;18592;49.708;10.900;2022-12-10T08:19:48;20.83;;;13.67;;
21432;SDS011;18592;49.708;10.900;2022-12-10T08:21:51;21.87;;;13.67;;
21432;SDS011;18592;49.708;10.900;2022-12-10T08:23:54;20.87;;;13.37;;
21432;SDS011;18592;49.708;10.900;2022-12-10T08:25:56;20.60;;;13.77;;
21432;SDS011;18592;49.708;10.900;2022-12-10T08:27:59;19.90;;;13.10;;
21432;SDS011;18592;49.708;10.900;2022-12-10T08:30:04;21.07;;;13.63;;
21432;SDS011;18592;49.708;10.900;2022-12-10T08:32:06;21.23;;;13.70;;
21432;SDS011;18592;49.708;10.900;2022-12-10T08:34:15;22.13;;;13.50;;
21432;SDS011;18592;49.708;10.900;2022-12-10T08:36:19;19.80;;;13.33;;
21432;SDS011;18592;49.708;10.900;2022-12-10T08:38:21;19.70;;;12.90;;
21432;SDS011;18592;49.708;10.900;2022-12-10T08:40:22;20.53;;;12.87;;
21432;SDS011;18592;49.708;10.900;2022-12-10T08:42:24;23.03;;;14.40;;
21432;SDS011;18592;49.708;10.900;2022-12-10T08:44:26;21.67;;;14.60;;
21432;SDS011;18592;49.708;10.900;2022-12-10T08:46:27;20.20;;;13.57;;
21432;SDS011;18592;49.708;10.900;2022-12-10T08:48:31;21.03;;;13.47;;
21432;SDS011;18592;49.708;10.900;2022-12-10T08:50:33;21.63;;;13.60;;
21432;SDS011;18592;49.708;10.900;2022-12-10T08:52:35;21.73;;;14.07;;
21432;SDS011;18592;49.708;10.900;2022-12-10T08:54:37;20.37;;;13.83;;
21432;SDS011;18592;49.708;10.900;2022-12-10T08:56:41;21.77;;;14.17;;
21432;SDS011;18592;49.708;10.900;2022-12-10T08:58:43;19.70;;;13.50;;
21432;SDS011;18592;49.708;10.900;2022-12-10T09:00:48;21.30;;;14.10;;
21432;SDS011;18592;49.708;10.900;2022-12-10T09:02:51;22.07;;;15.13;;
21432;SDS011;18592;49.708;10.900;2022-12-10T09:04:53;24.40;;;15.40;;
21432;SDS011;18592;49.708;10.900;2022-12-10T09:06:55;23.30;;;15.80;;
21432;SDS011;18592;49.708;10.900;2022-12-10T09:08:57;24.50;;;15.90;;
21432;SDS011;18592;49.708;10.900;2022-12-10T09:11:03;23.50;;;15.27;;
21432;SDS011;18592;49.708;10.900;2022-12-10T09:13:16;24.27;;;14.77;;
21432;SDS011;18592;49.708;10.900;2022-12-10T09:15:17;23.80;;;14.47;;
21432;SDS011;18592;49.708;10.900;2022-12-10T09:17:19;24.90;;;15.00;;
21432;SDS011;18592;49.708;10.900;2022-12-10T09:19:20;21.03;;;14.57;;
21432;SDS011;18592;49.708;10.900;2022-12-10T09:21:25;21.47;;;13.80;;
21432;SDS011;18592;49.708;10.900;2022-12-10T09:23:27;23.73;;;15.23;;
21432;SDS011;18592;49.708;10.900;2022-12-10T09:25:31;21.53;;;13.90;;
21432;SDS011;18592;49.708;10.900;2022-12-10T09:27:37;22.47;;;14.23;;
21432;SDS011;18592;49.708;10.900;2022-12-10T09:29:39;23.10;;;15.33;;
21432;SDS011;18592;49.708;10.900;2022-12-10T09:31:40;23.30;;;15.00;;
21432;SDS011;18592;49.708;10.900;2022-12-10T09:33:46;26.90;;;15.97;;
21432;SDS011;18592;49.708;10.900;2022-12-10T09:35:52;25.03;;;16.27;;
21432;SDS011;18592;49.708;10.900;2022-12-10T09:37:53;24.27;;;15.23;;
21432;SDS011;18592;49.708;10.900;2022-12-10T09:39:55;25.80;;;16.47;;
21432;SDS011;18592;49.708;10.900;2022-12-10T09:42:01;27.33;;;18.53;;
21432;SDS011;18592;49.708;10.900;2022-12-10T09:51:12;26.47;;;18.47;;
21432;SDS011;18592;49.708;10.900;2022-12-10T09:53:17;25.60;;;17.40;;
21432;SDS011;18592;49.708;10.900;2022-12-10T09:55:34;26.63;;;18.33;;
21432;SDS011;18592;49.708;10.900;2022-12-10T09:57:40;24.13;;;17.00;;
21432;SDS011;18592;49.708;10.900;2022-12-10T09:59:46;26.27;;;17.70;;
21432;SDS011;18592;49.708;10.900;2022-12-10T10:01:53;27.13;;;18.27;;
21432;SDS011;18592;49.708;10.900;2022-12-10T10:04:02;26.33;;;18.10;;
21432;SDS011;18592;49.708;10.900;2022-12-10T10:06:06;27.17;;;17.37;;
21432;SDS011;18592;49.708;10.900;2022-12-10T10:08:14;25.97;;;18.00;;
21432;SDS011;18592;49.708;10.900;2022-12-10T10:10:22;27.43;;;18.47;;
21432;SDS011;18592;49.708;10.900;2022-12-10T10:12:26;26.50;;;17.53;;
21432;SDS011;18592;49.708;10.900;2022-12-10T10:14:29;25.70;;;17.17;;
21432;SDS011;18592;49.708;10.900;2022-12-10T10:18:52;25.20;;;17.60;;
21432;SDS011;18592;49.708;10.900;2022-12-10T10:20:59;25.43;;;17.20;;
21432;SDS011;18592;49.708;10.900;2022-12-10T10:23:01;26.67;;;18.33;;
21432;SDS011;18592;49.708;10.900;2022-12-10T10:25:03;22.43;;;17.00;;
21432;SDS011;18592;49.708;10.900;2022-12-10T10:27:17;25.50;;;17.23;;
21432;SDS011;18592;49.708;10.900;2022-12-10T10:29:22;27.93;;;18.30;;
21432;SDS011;18592;49.708;10.900;2022-12-10T10:31:30;25.83;;;17.67;;
21432;SDS011;18592;49.708;10.900;2022-12-10T10:33:33;26.80;;;17.60;;
21432;SDS011;18592;49.708;10.900;2022-12-10T10:35:54;27.33;;;18.50;;
21432;SDS011;18592;49.708;10.900;2022-12-10T10:37:59;26.13;;;18.67;;
21432;SDS011;18592;49.708;10.900;2022-12-10T10:40:28;27.67;;;18.77;;
21432;SDS011;18592;49.708;10.900;2022-12-10T10:42:51;25.43;;;18.70;;
21432;SDS011;18592;49.708;10.900;2022-12-10T10:44:55;25.63;;;17.93;;
21432;SDS011;18592;49.708;10.900;2022-12-10T10:46:57;26.27;;;18.17;;
21432;SDS011;18592;49.708;10.900;2022-12-10T10:49:45;24.53;;;16.03;;
21432;SDS011;18592;49.708;10.900;2022-12-10T10:51:26;23.53;;;16.90;;
21432;SDS011;18592;49.708;10.900;2022-12-10T10:53:32;23.10;;;15.47;;
21432;SDS011;18592;49.708;10.900;2022-12-10T10:55:37;24.50;;;16.87;;
21432;SDS011;18592;49.708;10.900;2022-12-10T10:57:57;23.93;;;17.07;;
21432;SDS011;18592;49.708;10.900;2022-12-10T11:00:07;24.13;;;16.63;;
21432;SDS011;18592;49.708;10.900;2022-12-10T11:06:36;20.23;;;14.83;;
21432;SDS011;18592;49.708;10.900;2022-12-10T11:08:38;21.03;;;15.00;;
21432;SDS011;18592;49.708;10.900;2022-12-10T11:10:48;22.23;;;15.37;;
21432;SDS011;18592;49.708;10.900;2022-12-10T11:12:54;21.90;;;14.90;;
21432;SDS011;18592;49.708;10.900;2022-12-10T11:14:59;21.57;;;14.67;;
21432;SDS011;18592;49.708;10.900;2022-12-10T11:17:03;20.73;;;14.73;;
21432;SDS011;18592;49.708;10.900;2022-12-10T11:19:18;23.40;;;15.93;;
21432;SDS011;18592;49.708;10.900;2022-12-10T11:21:23;19.70;;;14.60;;
21432;SDS011;18592;49.708;10.900;2022-12-10T11:23:27;20.30;;;15.00;;
21432;SDS011;18592;49.708;10.900;2022-12-10T11:27:56;22.10;;;14.40;;
21432;SDS011;18592;49.708;10.900;2022-12-10T11:30:06;21.80;;;14.73;;
21432;SDS011;18592;49.708;10.900;2022-12-10T11:34:36;21.97;;;14.83;;
21432;SDS011;18592;49.708;10.900;2022-12-10T11:39:31;19.43;;;14.23;;
21432;SDS011;18592;49.708;10.900;2022-12-10T11:41:57;21.50;;;14.80;;
21432;SDS011;18592;49.708;10.900;2022-12-10T11:46:50;19.03;;;14.20;;
21432;SDS011;18592;49.708;10.900;2022-12-10T11:55:46;30.13;;;19.10;;
21432;SDS011;18592;49.708;10.900;2022-12-10T12:00:23;28.43;;;18.20;;
21432;SDS011;18592;49.708;10.900;2022-12-10T12:10:20;24.23;;;16.23;;
21432;SDS011;18592;49.708;10.900;2022-12-10T12:13:04;25.30;;;16.70;;
21432;SDS011;18592;49.708;10.900;2022-12-10T12:15:16;22.47;;;15.63;;
21432;SDS011;18592;49.708;10.900;2022-12-10T12:17:26;21.60;;;15.27;;
21432;SDS011;18592;49.708;10.900;2022-12-10T12:21:45;21.77;;;15.17;;
21432;SDS011;18592;49.708;10.900;2022-12-10T12:23:58;21.27;;;15.17;;
21432;SDS011;18592;49.708;10.900;2022-12-10T12:26:13;21.23;;;14.47;;
21432;SDS011;18592;49.708;10.900;2022-12-10T12:28:55;23.67;;;15.47;;
21432;SDS011;18592;49.708;10.900;2022-12-10T12:31:15;22.90;;;15.33;;
21432;SDS011;18592;49.708;10.900;2022-12-10T12:35:43;25.37;;;16.27;;
21432;SDS011;18592;49.708;10.900;2022-12-10T12:37:59;21.90;;;15.63;;
21432;SDS011;18592;49.708;10.900;2022-12-10T12:40:13;22.87;;;16.50;;
21432;SDS011;18592;49.708;10.900;2022-12-10T12:42:33;24.33;;;16.70;;
21432;SDS011;18592;49.708;10.900;2022-12-10T12:47:26;25.00;;;17.47;;
21432;SDS011;18592;49.708;10.900;2022-12-10T12:49:39;24.73;;;17.53;;
21432;SDS011;18592;49.708;10.900;2022-12-10T12:51:45;26.00;;;17.73;;
21432;SDS011;18592;49.708;10.900;2022-12-10T12:53:57;25.10;;;17.07;;
21432;SDS011;18592;49.708;10.900;2022-12-10T12:56:02;21.10;;;16.27;;
21432;SDS011;18592;49.708;10.900;2022-12-10T13:00:51;23.73;;;16.70;;
21432;SDS011;18592;49.708;10.900;2022-12-10T13:05:35;21.77;;;15.43;;
21432;SDS011;18592;49.708;10.900;2022-12-10T13:07:40;21.07;;;15.37;;
21432;SDS011;18592;49.708;10.900;2022-12-10T13:10:08;24.03;;;15.23;;
21432;SDS011;18592;49.708;10.900;2022-12-10T13:14:29;23.27;;;15.30;;
21432;SDS011;18592;49.708;10.900;2022-12-10T13:21:26;21.73;;;14.63;;
21432;SDS011;18592;49.708;10.900;2022-12-10T13:23:31;21.93;;;15.73;;
21432;SDS011;18592;49.708;10.900;2022-12-10T13:25:58;22.97;;;16.47;;